Monday, December 17, 2018, 9:49 AM GMT
Back to Local

CWPE, Point Lepreau, N. B.

Location: , , Canada Lat: 45.067
Local Time: 9:49 AM GMT ( 9:49 GMT) Lon: -66.467
Time Zone: GMT Elev: 3 ft

Show me the last for .
Show Coded

Time T Td Feel RH Dir Speed Gust Alt SLP Vis Weather Sky Remarks
2018-12-17 09:00 33 32 26 94 80° 8 - - 29.80 0 Peak wind: 21 mph (19 kts) from 110° at 21 min
1-hr Precip Total: 0.01"
2018-12-17 08:00 38 30 27 72 100° 13 22 - 29.84 0 Peak wind: 24 mph (21 kts) from 110° at 42 min
2018-12-17 07:00 38 29 27 70 100° 16 23 - 29.88 0 Peak wind: 24 mph (21 kts) from 90° at 21 min
2018-12-17 06:00 38 29 28 68 90° 14 22 - 29.90 0 Peak wind: 24 mph (21 kts) from 90° at 19 min
2018-12-17 05:00 38 30 28 70 80° 14 23 - 29.93 0 Peak wind: 26 mph (23 kts) from 80° at 02 min
2018-12-17 04:00 37 30 26 77 90° 13 20 - 29.97 0 Peak wind: 21 mph (19 kts) from 80° at 16 min
2018-12-17 03:00 38 32 27 78 80° 12 23 - 30.01 0 Peak wind: 23 mph (20 kts) from 80° at 57 min
2018-12-17 02:00 35 29 28 80 50° 8 - - 30.04 0 None
2018-12-17 01:00 36 30 32 79 40° 5 - - 30.07 0 None
2018-12-17 00:00 33 30 29 90 40° 5 - - 30.09 0 None
2018-12-16 23:00 33 29 30 83 30° 3 - - 30.11 0 None
2018-12-16 22:00 32 28 28 86 20° 3 - - 30.13 0 None
2018-12-16 21:00 31 28 28 88 30° 3 - - 30.13 0 None
2018-12-16 20:00 36 30 33 77 10° 3 - - 30.16 0 None
2018-12-16 19:00 38 31 36 75 100° 3 - - 30.16 0 None
2018-12-16 18:00 37 29 34 72 110° 5 - - 30.17 0 None
2018-12-16 17:00 37 29 33 71 110° 5 - - 30.18 0 None
2018-12-16 16:00 38 28 33 67 110° 6 - - 30.21 0 None
2018-12-16 15:00 38 29 36 69 80° 3 - - 30.25 0 None
2018-12-16 14:00 34 29 29 81 340° 6 - - 30.24 0 None
2018-12-16 13:00 29 27 23 90 340° 6 - - 30.24 0 None
2018-12-16 12:00 26 26 20 100 330° 5 - - 30.23 0 None
2018-12-16 11:00 25 24 20 95 300° 3 - - 30.23 0 None
2018-12-16 10:00 27 25 23 94 330° 3 - - 30.23 0 None

Support USWX by starting your Amazon purchase here.